AirNav   Pilot Hours Calculator
 
 1228 users online  

03KY Flying H Farms Airport
Henderson, Kentucky, USA

GOING TO HENDERSON?


FAA INFORMATION EFFECTIVE 26 MARCH 2020

Location

FAA Identifier: 03KY
Lat/Long: 37-47-45.2544N 087-32-19.6440W
37-47.754240N 087-32.327400W
37.7959040,-87.5387900
(estimated)
Elevation: 385 ft. / 117 m (estimated)
Variation: 00W (1985)
From city: 3 miles E of HENDERSON, KY
Time zone: UTC -5 (UTC -6 during Standard Time)
Zip code: 42420

Airport Operations

Airport use: Private use. Permission required prior to landing
Activation date: 03/1970
Control tower: no
ARTCC: INDIANAPOLIS CENTER
FSS: LOUISVILLE FLIGHT SERVICE STATION
Attendance: DAYLIGHT HOURS
Wind indicator: no
Segmented circle: no

Airport Communications

WX AWOS-3PT at EHR (7 nm W): 118.85 (270-826-0511)
WX ASOS at EVV (15 nm N): 120.2 (812-436-4681)
WX AWOS-3PT at OWB (18 nm E): 119.025 (270-683-3228)

Nearby radio navigation aids

VOR radial/distance  VOR name  Freq  Var
PXVr124/13.2POCKET CITY VORTAC113.3003E
OWBr284/18.0OWENSBORO VOR/DME108.6004W
CCTr333/28.0CENTRAL CITY VORTAC109.8001W

Airport Services

Airframe service: MINOR
Powerplant service: MINOR

Runway Information

Runway 3/21

Dimensions: 2300 x 80 ft. / 701 x 24 m
Surface: turf
RUNWAY 3  RUNWAY 21
Traffic pattern: leftleft
Obstructions: pline, markedpline, marked

Airport Ownership and Management from official FAA records

Ownership: Privately-owned
Owner: KIMBER J. HEDDENS JR.
7644 AIRLINE ROAD
HENDERSON, KY 42420
Phone (270) 869-4991
Manager: KIMBER J. HEDDENS JR.
7644 AIRLINE ROAD
HENDERSON, KY 42420
Phone (270) 869-4991

Additional Remarks

FOR CD CTC EVANSVILLE APCH AT 812-436-4690, WHEN APCH CLSD CTC INDIANAPOLIS ARTCC AT 317-247-2411.

Instrument Procedures

There are no published instrument procedures at 03KY.

Some nearby airports with instrument procedures:

KEHR - Henderson City-County Airport (7 nm W)
KEVV - Evansville Regional Airport (15 nm N)
KOWB - Owensboro-Daviess County Regional Airport (18 nm E)
KTWT - Sturgis Municipal Airport (25 nm SW)
2I0 - Madisonville Regional Airport (27 nm S)
 
Loc | Ops | Rwys | IFR | FBO | Links
Com | Nav | Svcs | Stats | Notes
Area around 03KY (Flying H Farms Airport)
 
Road maps at: MapQuest Bing Google
 
Aerial photo
No photo
 
Sectional chart

 
Airport distance calculator
Flying to Flying H Farms Airport? Find the distance to fly.

From to 03KY

Sunrise and sunset
Times for 30-Mar-2020
 Local
(UTC-5)
 Zulu
(UTC)
Morning civil twilight06:1211:12
Sunrise06:3811:38
Sunset19:1100:11
Evening civil twilight19:3700:37

Current date and time
Zulu (UTC)  30-Mar-2020 19:17:54
Local (UTC-5)  30-Mar-2020 14:17:54
 
METAR
KEHR 
6nm W 
301856Z AUTO 29006KT 10SM CLR 16/02 A3018 RMK AO2 SLP221 T01610022
KEVV 
15nm N 
301854Z 32010KT 10SM CLR 17/01 A3019 RMK AO2 SLP223 T01670006
KI19 
18nm NE 
301856Z AUTO 32006G18KT 10SM OVC044 11/00 A3010 RMK AO2 T01110001
KOWB 
18nm E 
301856Z 29008G14KT 10SM CLR 17/01 A3018 RMK AO2 SLP219 T01670011
TAF
KEVV 
15nm N 
301720Z 3018/3118 28007KT P6SM BKN250 FM310100 00000KT P6SM OVC200 FM311200 06005KT P6SM OVC100 FM311500 04006KT P6SM -RA OVC040
KOWB 
18nm E 
301720Z 3018/3118 30008KT P6SM BKN250 FM310100 VRB03KT P6SM VCSH OVC150 FM311200 07005KT P6SM -RA OVC090 FM311600 03008KT 6SM -RA OVC025
NOTAMs
Click for the latest NOTAMs
NOTAMs are issued by the DoD/FAA and will open in a separate window not controlled by AirNav.

 

 
 

Would you like to see your business listed on this page?

 If your business provides an interesting product or service to pilots, flight crews, aircraft, or users of the Flying H Farms Airport, you should consider listing it here.  To start the listing process, click on the button below
 
Add a business
 

Other Pages about Flying H Farms Airport

Update a link
 
Copyright © AirNav, LLC. All rights reserved. Privacy Policy  Contact